Time;durP1;ratioP1;P1;durP2;ratioP2;P2;SDS_P1;SDS_P2;PMS_P1;PMS_P2;Temp;Humidity;BMP_temperature;BMP_pressure;BME280_temperature;BME280_humidity;BME280_pressure;Samples;Min_cycle;Max_cycle;Signal;HPM_P1;HPM_P2
2021/08/31 00:03:32;;;;;;;6.20;3.38;;;14.90;99.90;;;;;;10356801;28;20048;-61
2021/08/31 00:08:34;;;;;;;5.82;2.97;;;14.90;99.90;;;;;;10361763;28;20103;-61
2021/08/31 00:13:35;;;;;;;6.82;3.28;;;14.90;99.90;;;;;;10365170;28;20115;-62
2021/08/31 00:18:37;;;;;;;6.03;3.47;;;14.80;99.90;;;;;;10360588;28;20411;-61
2021/08/31 00:23:39;;;;;;;6.63;3.55;;;14.80;99.90;;;;;;10362159;28;20049;-61
2021/08/31 00:28:40;;;;;;;6.75;3.60;;;14.70;99.90;;;;;;10359307;28;20054;-61
2021/08/31 00:33:42;;;;;;;4.65;3.55;;;14.70;99.90;;;;;;10357412;28;20056;-60
2021/08/31 00:38:44;;;;;;;6.15;3.58;;;14.60;99.90;;;;;;10360223;28;20045;-61
2021/08/31 00:43:47;;;;;;;5.97;3.50;;;14.60;99.90;;;;;;10362289;28;20749;-61
2021/08/31 00:48:52;;;;;;;5.45;3.17;;;14.50;99.90;;;;;;10361767;28;20049;-61
2021/08/31 00:53:54;;;;;;;5.25;3.35;;;14.50;99.90;;;;;;10359034;28;20053;-61
2021/08/31 00:58:56;;;;;;;7.10;3.75;;;14.60;99.90;;;;;;10361251;28;20551;-61
2021/08/31 01:03:58;;;;;;;3.72;3.33;;;14.50;99.90;;;;;;10361718;28;20053;-61
2021/08/31 01:08:59;;;;;;;8.25;3.55;;;14.50;99.90;;;;;;10362631;28;20053;-62
2021/08/31 01:14:02;;;;;;;5.65;3.50;;;14.40;99.90;;;;;;10360276;28;20049;-60
2021/08/31 01:19:03;;;;;;;9.27;3.67;;;14.40;99.90;;;;;;10370784;28;20052;-61
2021/08/31 01:24:05;;;;;;;5.20;3.60;;;14.30;99.90;;;;;;10365726;28;20120;-60
2021/08/31 01:29:07;;;;;;;7.80;3.80;;;14.30;99.90;;;;;;10362564;28;20050;-61
2021/08/31 01:34:09;;;;;;;8.27;3.80;;;14.30;99.90;;;;;;10368011;28;20053;-61
2021/08/31 01:39:11;;;;;;;4.85;3.50;;;14.30;99.90;;;;;;10368072;28;20049;-60
2021/08/31 01:44:14;;;;;;;5.22;3.40;;;14.20;99.90;;;;;;10367584;28;20104;-60
2021/08/31 01:49:15;;;;;;;7.63;3.55;;;14.30;99.90;;;;;;10369706;28;20084;-61
2021/08/31 01:54:17;;;;;;;7.38;3.97;;;14.20;99.90;;;;;;10370227;28;20045;-60
2021/08/31 01:59:19;;;;;;;5.57;3.50;;;14.20;99.90;;;;;;10361323;28;20463;-61
2021/08/31 02:04:32;;;;;;;7.00;3.85;;;14.20;99.90;;;;;;10366625;28;20057;-62
2021/08/31 02:09:33;;;;;;;4.70;3.60;;;14.10;99.90;;;;;;10366378;28;20080;-62
2021/08/31 02:14:35;;;;;;;4.47;3.17;;;14.10;99.90;;;;;;10367846;28;20365;-61
2021/08/31 02:19:36;;;;;;;7.07;3.15;;;14.10;99.90;;;;;;10362918;28;20112;-60
2021/08/31 02:24:38;;;;;;;6.32;3.78;;;14.00;99.90;;;;;;10375819;28;20049;-59
2021/08/31 02:29:40;;;;;;;6.25;3.60;;;14.00;99.90;;;;;;10365010;28;20463;-60
2021/08/31 02:34:41;;;;;;;8.55;3.67;;;13.90;99.90;;;;;;10367075;28;20053;-60
2021/08/31 02:39:43;;;;;;;8.07;3.60;;;13.90;99.90;;;;;;10365992;28;20073;-60
2021/08/31 02:44:45;;;;;;;7.22;3.80;;;13.90;99.90;;;;;;10365062;28;20508;-60
2021/08/31 02:49:51;;;;;;;8.85;4.25;;;14.00;99.90;;;;;;10364644;28;20040;-59
2021/08/31 02:54:53;;;;;;;5.30;3.30;;;14.00;99.90;;;;;;10366181;28;20049;-60
2021/08/31 02:59:54;;;;;;;6.38;3.45;;;14.00;99.90;;;;;;10364639;28;20054;-60
2021/08/31 03:04:56;;;;;;;8.68;4.03;;;14.10;99.90;;;;;;10365682;28;20060;-60
2021/08/31 03:09:58;;;;;;;4.03;3.08;;;14.10;99.90;;;;;;10366929;28;20053;-59
2021/08/31 03:14:59;;;;;;;6.13;3.60;;;14.10;99.90;;;;;;10363821;28;20055;-61
2021/08/31 03:20:01;;;;;;;8.63;3.97;;;14.00;99.90;;;;;;10362571;28;20107;-59
2021/08/31 03:25:03;;;;;;;6.57;3.38;;;14.00;99.90;;;;;;10364697;28;20436;-60
2021/08/31 03:30:09;;;;;;;6.85;3.40;;;13.90;99.90;;;;;;10360532;28;20420;-59
2021/08/31 03:35:11;;;;;;;6.53;4.35;;;14.00;99.90;;;;;;10364651;28;20049;-59
2021/08/31 03:40:13;;;;;;;4.88;3.17;;;14.20;99.90;;;;;;10361719;28;20056;-60
2021/08/31 03:45:16;;;;;;;6.25;3.33;;;14.30;99.90;;;;;;10361283;28;20358;-60
2021/08/31 03:50:17;;;;;;;5.10;3.45;;;14.20;99.90;;;;;;10366126;28;20053;-59
2021/08/31 03:55:19;;;;;;;5.45;3.70;;;14.20;99.90;;;;;;10362956;28;20764;-60
2021/08/31 04:00:21;;;;;;;7.75;4.22;;;14.30;99.90;;;;;;10363203;28;20046;-60
2021/08/31 04:05:23;;;;;;;5.07;2.83;;;14.30;99.90;;;;;;10366908;28;20155;-59
2021/08/31 04:10:25;;;;;;;6.22;3.10;;;14.30;99.90;;;;;;10361720;28;20061;-59
2021/08/31 04:15:26;;;;;;;5.65;4.03;;;14.30;99.90;;;;;;10362795;28;20115;-60
2021/08/31 04:20:28;;;;;;;6.38;4.10;;;14.30;99.90;;;;;;10365557;28;20041;-60
2021/08/31 04:25:30;;;;;;;5.60;3.55;;;14.30;99.90;;;;;;10363098;28;20092;-60
2021/08/31 04:30:31;;;;;;;8.20;4.32;;;14.30;99.90;;;;;;10361663;28;20144;-60
2021/08/31 04:35:33;;;;;;;7.35;3.70;;;14.30;99.90;;;;;;10361284;28;20107;-67
2021/08/31 04:40:35;;;;;;;5.20;3.70;;;14.30;99.90;;;;;;10361069;28;20077;-67
2021/08/31 04:45:36;;;;;;;6.47;3.72;;;14.20;99.90;;;;;;10366276;28;20107;-67
2021/08/31 04:50:38;;;;;;;6.63;3.90;;;14.20;99.90;;;;;;10367710;28;20049;-67
2021/08/31 04:55:40;;;;;;;5.63;3.70;;;14.10;99.90;;;;;;10368856;28;20103;-67
2021/08/31 05:00:42;;;;;;;10.52;4.32;;;14.00;99.90;;;;;;10369703;28;20052;-66
2021/08/31 05:05:43;;;;;;;6.50;3.20;;;14.00;99.90;;;;;;10372188;28;20100;-67
2021/08/31 05:10:45;;;;;;;7.00;3.70;;;14.00;99.90;;;;;;10368985;28;20064;-68
2021/08/31 05:15:47;;;;;;;6.07;3.33;;;13.90;99.90;;;;;;10369073;28;20408;-67
2021/08/31 05:20:49;;;;;;;8.20;4.45;;;13.90;99.90;;;;;;10370986;28;20060;-66
2021/08/31 05:25:51;;;;;;;5.97;3.67;;;14.00;99.90;;;;;;10367911;28;20115;-66
2021/08/31 05:30:53;;;;;;;6.68;3.42;;;14.00;99.90;;;;;;10378975;28;20041;-66
2021/08/31 05:35:54;;;;;;;6.75;4.03;;;14.00;99.90;;;;;;10369990;28;20054;-66
2021/08/31 05:40:56;;;;;;;9.65;3.97;;;14.10;99.90;;;;;;10369809;28;20069;-68
2021/08/31 05:45:57;;;;;;;7.38;3.88;;;14.10;99.90;;;;;;10367576;28;20045;-68
2021/08/31 05:50:59;;;;;;;7.05;3.90;;;14.20;99.90;;;;;;10364963;28;20054;-68
2021/08/31 05:56:01;;;;;;;6.47;3.33;;;14.20;99.90;;;;;;10368007;28;20057;-68
2021/08/31 06:01:03;;;;;;;6.90;3.85;;;14.30;99.90;;;;;;10363171;28;20045;-68
2021/08/31 06:06:05;;;;;;;7.35;3.65;;;14.40;99.90;;;;;;10384049;28;20049;-68
2021/08/31 06:11:07;;;;;;;6.32;3.58;;;14.50;99.90;;;;;;10368485;28;20057;-68
2021/08/31 06:16:09;;;;;;;6.88;2.97;;;14.60;99.90;;;;;;10362987;28;20046;-68
2021/08/31 06:21:11;;;;;;;6.47;3.42;;;14.70;99.90;;;;;;10372374;28;20052;-67
2021/08/31 06:26:12;;;;;;;5.82;3.83;;;14.80;99.90;;;;;;10364064;28;20119;-68
2021/08/31 06:31:14;;;;;;;6.72;3.55;;;15.00;99.90;;;;;;10364846;28;20081;-68
2021/08/31 06:36:16;;;;;;;5.90;3.00;;;15.10;99.90;;;;;;10364319;28;20077;-68
2021/08/31 06:41:17;;;;;;;5.25;3.17;;;15.20;99.90;;;;;;10368513;28;20122;-67
2021/08/31 06:46:19;;;;;;;7.15;3.33;;;15.30;99.90;;;;;;10367082;28;20128;-67
2021/08/31 06:51:41;;;;;;;7.10;2.58;;;15.40;99.90;;;;;;10362950;28;20660;-67
2021/08/31 06:56:43;;;;;;;4.57;2.35;;;15.60;99.90;;;;;;10366809;28;20069;-68
2021/08/31 07:01:45;;;;;;;5.32;2.67;;;15.80;99.90;;;;;;10361247;28;20419;-67
2021/08/31 07:06:47;;;;;;;6.28;2.60;;;16.00;99.90;;;;;;10366484;28;20052;-67
2021/08/31 07:11:48;;;;;;;3.97;2.42;;;16.20;99.90;;;;;;10359432;28;20531;-67
2021/08/31 07:16:50;;;;;;;3.45;2.00;;;16.30;99.90;;;;;;10368272;28;20073;-67
2021/08/31 07:21:52;;;;;;;4.22;2.53;;;16.50;99.90;;;;;;10369128;28;20061;-67
2021/08/31 07:26:53;;;;;;;3.53;2.35;;;16.70;99.90;;;;;;10362495;28;20054;-67
2021/08/31 07:31:55;;;;;;;4.53;1.75;;;16.80;99.90;;;;;;10364097;28;20123;-67
2021/08/31 07:36:57;;;;;;;4.30;2.70;;;16.70;99.90;;;;;;10362984;28;20045;-67
2021/08/31 07:41:59;;;;;;;4.50;2.33;;;16.80;99.90;;;;;;10353093;28;20045;-67
2021/08/31 07:47:00;;;;;;;5.07;2.15;;;17.00;99.90;;;;;;10352429;28;20111;-67
2021/08/31 07:52:02;;;;;;;2.60;1.70;;;17.10;99.90;;;;;;10359211;28;20472;-67
2021/08/31 07:57:04;;;;;;;3.17;1.88;;;17.30;99.90;;;;;;10385255;28;20046;-67
2021/08/31 08:02:06;;;;;;;2.70;1.95;;;17.50;99.90;;;;;;10358909;28;20107;-68
2021/08/31 08:07:08;;;;;;;3.78;1.80;;;17.50;99.90;;;;;;10370104;28;20664;-68
2021/08/31 08:12:10;;;;;;;2.97;2.00;;;17.70;99.90;;;;;;10362820;28;20127;-68
2021/08/31 08:17:12;;;;;;;3.97;2.08;;;17.70;99.90;;;;;;10357492;28;20073;-68
2021/08/31 08:22:14;;;;;;;3.63;1.77;;;17.70;99.90;;;;;;10364385;28;20038;-68
2021/08/31 08:27:16;;;;;;;2.67;1.85;;;17.80;99.90;;;;;;10362163;28;20393;-68
2021/08/31 08:32:18;;;;;;;5.38;1.70;;;17.90;99.90;;;;;;10362460;28;20050;-68
2021/08/31 08:37:20;;;;;;;2.85;1.98;;;18.00;99.90;;;;;;10359887;28;20559;-68
2021/08/31 08:42:21;;;;;;;2.95;1.75;;;18.30;99.90;;;;;;10357060;28;20496;-68
2021/08/31 08:47:23;;;;;;;5.93;1.88;;;18.50;99.90;;;;;;10362583;28;20500;-68
2021/08/31 08:52:25;;;;;;;4.80;1.30;;;18.60;99.90;;;;;;10357120;28;20088;-68
2021/08/31 08:57:30;;;;;;;3.20;1.95;;;18.90;99.90;;;;;;10359958;28;20555;-68
2021/08/31 09:02:40;;;;;;;3.88;1.65;;;19.20;99.90;;;;;;10355840;28;20062;-68
2021/08/31 09:07:42;;;;;;;2.70;1.92;;;19.60;99.90;;;;;;10359452;28;20058;-68
2021/08/31 09:12:49;;;;;;;3.60;1.80;;;19.60;99.90;;;;;;10360725;28;20057;-70
2021/08/31 09:23:08;;;;;;;;;;;19.70;99.90;;;;;;10361430;28;20054;-69
2021/08/31 09:28:26;;;;;;;7.40;1.98;;;19.80;99.90;;;;;;10360134;28;20043;-69
2021/08/31 09:33:30;;;;;;;5.60;1.92;;;19.90;99.90;;;;;;10362950;28;20053;-69
2021/08/31 09:38:44;;;;;;;3.47;1.50;;;19.80;99.90;;;;;;10368218;28;20492;-69
2021/08/31 09:43:50;;;;;;;2.60;1.25;;;19.60;99.90;;;;;;10369882;28;20535;-69
2021/08/31 09:48:51;;;;;;;4.18;1.20;;;19.20;99.90;;;;;;10369873;28;20061;-68
2021/08/31 09:53:53;;;;;;;2.25;1.38;;;19.50;99.90;;;;;;10364461;28;20049;-68
2021/08/31 09:58:59;;;;;;;4.07;1.50;;;19.80;99.90;;;;;;10377725;28;20136;-68
2021/08/31 10:04:00;;;;;;;4.25;1.63;;;19.90;99.90;;;;;;10366436;28;20119;-68
2021/08/31 10:09:02;;;;;;;3.65;1.67;;;20.40;99.90;;;;;;10357502;28;20169;-69
2021/08/31 10:14:04;;;;;;;2.33;1.63;;;20.50;99.90;;;;;;10369246;28;20049;-69
2021/08/31 10:19:06;;;;;;;3.55;1.73;;;20.40;99.90;;;;;;10369069;28;20053;-68
2021/08/31 10:24:08;;;;;;;3.70;1.70;;;20.50;99.90;;;;;;10366950;28;20057;-68
2021/08/31 10:29:13;;;;;;;2.90;1.60;;;20.60;99.90;;;;;;10361103;28;20065;-68
2021/08/31 10:34:30;;;;;;;3.78;1.90;;;20.40;99.90;;;;;;10369190;28;20049;-68
2021/08/31 10:39:44;;;;;;;2.42;1.50;;;20.20;99.90;;;;;;10372189;28;20095;-67
2021/08/31 10:44:45;;;;;;;3.35;2.17;;;20.40;99.60;;;;;;10379260;28;20041;-67
2021/08/31 10:50:00;;;;;;;2.55;1.85;;;20.30;99.70;;;;;;10368842;28;20496;-68
2021/08/31 10:55:03;;;;;;;2.88;1.75;;;20.20;99.90;;;;;;10360467;28;20399;-67
2021/08/31 11:00:24;;;;;;;4.50;1.85;;;20.10;99.90;;;;;;10365111;28;20072;-68
2021/08/31 11:05:33;;;;;;;2.42;1.73;;;20.80;99.50;;;;;;10365999;28;20065;-68
2021/08/31 11:10:37;;;;;;;5.00;2.03;;;20.80;98.80;;;;;;10366175;28;20108;-67
2021/08/31 11:15:40;;;;;;;3.40;2.13;;;20.60;99.40;;;;;;10362256;28;20049;-69
2021/08/31 11:20:47;;;;;;;3.78;2.40;;;20.40;99.90;;;;;;10363522;28;20058;-67
2021/08/31 11:25:56;;;;;;;;;;;20.40;99.90;;;;;;10364452;28;20050;-67
2021/08/31 11:30:57;;;;;;;2.60;2.25;;;20.40;99.90;;;;;;10360302;28;19952;-68
2021/08/31 11:36:05;;;;;;;4.20;2.58;;;20.20;99.90;;;;;;10362411;28;20073;-68
2021/08/31 11:41:34;;;;;;;4.78;2.33;;;20.20;99.90;;;;;;10359643;28;20058;-67
2021/08/31 11:46:39;;;;;;;2.97;1.77;;;20.50;99.80;;;;;;10355321;28;20107;-68
2021/08/31 11:51:44;;;;;;;2.33;1.77;;;20.30;99.90;;;;;;10361828;28;20473;-67
2021/08/31 11:56:51;;;;;;;2.97;2.28;;;20.50;99.90;;;;;;10363322;28;20485;-67
2021/08/31 12:01:53;;;;;;;3.90;2.42;;;21.20;99.70;;;;;;10363149;28;20504;-67
2021/08/31 12:06:57;;;;;;;2.50;2.10;;;20.80;99.50;;;;;;10365558;28;20049;-68
2021/08/31 12:11:59;;;;;;;3.08;2.17;;;20.90;99.50;;;;;;10361384;28;20073;-68
2021/08/31 12:17:01;;;;;;;4.47;2.30;;;20.90;99.40;;;;;;10360089;28;20124;-69
2021/08/31 12:22:12;;;;;;;4.55;2.17;;;20.90;99.30;;;;;;10358309;28;20077;-69
2021/08/31 12:27:16;;;;;;;5.55;2.67;;;20.50;99.90;;;;;;10364182;28;20123;-68
2021/08/31 12:32:29;;;;;;;4.00;2.30;;;20.40;99.90;;;;;;10358606;28;20131;-68
2021/08/31 12:37:33;;;;;;;4.60;2.22;;;20.30;99.90;;;;;;10365387;28;20085;-68
2021/08/31 12:42:35;;;;;;;5.90;2.70;;;20.30;99.90;;;;;;10362512;28;20049;-69
2021/08/31 12:47:38;;;;;;;3.75;2.60;;;20.00;99.90;;;;;;10361799;28;20504;-69
2021/08/31 12:52:39;;;;;;;6.18;2.72;;;19.90;99.90;;;;;;10362115;28;20107;-68
2021/08/31 12:57:41;;;;;;;3.95;2.58;;;20.00;99.90;;;;;;10358418;28;20054;-68
2021/08/31 13:02:43;;;;;;;3.95;2.90;;;20.30;99.90;;;;;;10364323;28;20079;-69
2021/08/31 13:07:45;;;;;;;2.40;2.05;;;20.60;99.70;;;;;;10362243;28;20599;-69
2021/08/31 13:12:47;;;;;;;3.20;2.00;;;21.00;98.70;;;;;;10364073;28;20045;-68
2021/08/31 13:17:49;;;;;;;3.15;2.28;;;21.50;98.20;;;;;;10369543;28;20053;-68
2021/08/31 13:22:51;;;;;;;2.30;1.48;;;22.00;95.80;;;;;;10371824;28;20081;-68
2021/08/31 13:27:52;;;;;;;2.22;1.20;;;21.90;92.70;;;;;;10365123;28;20053;-68
2021/08/31 13:32:54;;;;;;;2.55;1.13;;;22.30;93.40;;;;;;10361848;28;20136;-68
2021/08/31 13:37:55;;;;;;;1.95;1.38;;;22.80;91.30;;;;;;10369437;28;20041;-68
2021/08/31 13:42:57;;;;;;;4.25;1.10;;;23.50;90.20;;;;;;10363631;28;20367;-68
2021/08/31 13:48:00;;;;;;;2.60;1.77;;;23.90;87.20;;;;;;10364955;28;20057;-68
2021/08/31 13:53:01;;;;;;;2.95;1.73;;;23.50;85.70;;;;;;10370996;28;20490;-68
2021/08/31 13:58:03;;;;;;;3.25;1.20;;;23.90;84.10;;;;;;10364783;28;20050;-68
2021/08/31 14:03:05;;;;;;;9.88;1.67;;;24.40;82.20;;;;;;10363512;28;20107;-69
2021/08/31 14:08:09;;;;;;;2.38;1.50;;;24.60;80.20;;;;;;10367974;28;20064;-69
2021/08/31 14:13:10;;;;;;;2.38;1.25;;;24.20;81.30;;;;;;10365257;28;20479;-69
2021/08/31 14:18:13;;;;;;;1.92;1.48;;;23.50;80.70;;;;;;10364612;28;20162;-69
2021/08/31 14:23:15;;;;;;;1.92;1.00;;;23.20;81.50;;;;;;10368828;28;20081;-70
2021/08/31 14:28:18;;;;;;;3.17;1.23;;;24.00;80.70;;;;;;10361792;28;20481;-66
2021/08/31 14:33:19;;;;;;;2.85;1.05;;;24.40;76.90;;;;;;10364426;28;20099;-64
2021/08/31 14:38:21;;;;;;;2.30;1.10;;;25.20;76.20;;;;;;10368963;28;20053;-65
2021/08/31 14:43:23;;;;;;;1.27;1.02;;;25.60;73.10;;;;;;10366803;28;20093;-65
2021/08/31 14:48:25;;;;;;;4.15;1.83;;;25.70;72.30;;;;;;10368497;28;20401;-66
2021/08/31 14:53:27;;;;;;;2.33;1.38;;;24.60;72.40;;;;;;10362802;28;20049;-66
2021/08/31 14:58:29;;;;;;;2.42;1.30;;;24.30;73.40;;;;;;10359667;28;20510;-65
2021/08/31 15:03:30;;;;;;;2.17;1.40;;;23.90;75.20;;;;;;10365034;28;20050;-65
2021/08/31 15:08:32;;;;;;;2.15;1.60;;;24.20;76.10;;;;;;10359672;28;20124;-68
2021/08/31 15:13:34;;;;;;;2.08;1.30;;;23.00;77.40;;;;;;10360950;28;21225;-67
2021/08/31 15:18:36;;;;;;;2.72;1.42;;;23.00;79.30;;;;;;10362355;28;20449;-68
2021/08/31 15:23:37;;;;;;;5.90;1.60;;;23.00;80.60;;;;;;10363575;28;20112;-68
2021/08/31 15:28:39;;;;;;;4.05;1.38;;;22.90;78.90;;;;;;10363542;28;20074;-68
2021/08/31 15:33:41;;;;;;;2.03;1.38;;;22.80;78.80;;;;;;10366455;28;20069;-67
2021/08/31 15:38:42;;;;;;;3.30;1.30;;;22.70;78.70;;;;;;10363449;28;20056;-67
2021/08/31 15:43:48;;;;;;;2.78;1.63;;;23.00;79.30;;;;;;10358881;28;20053;-67
2021/08/31 15:48:50;;;;;;;2.35;1.52;;;22.80;78.00;;;;;;10361462;28;20415;-69
2021/08/31 15:53:52;;;;;;;3.10;2.10;;;22.70;79.90;;;;;;10365816;28;20147;-69
2021/08/31 15:58:54;;;;;;;3.25;1.58;;;22.80;80.20;;;;;;10351612;28;20049;-69
2021/08/31 16:03:56;;;;;;;3.92;1.77;;;22.90;80.80;;;;;;10364319;28;20104;-67
2021/08/31 16:08:58;;;;;;;2.50;1.33;;;22.80;78.30;;;;;;10367106;28;20155;-67
2021/08/31 16:13:59;;;;;;;2.40;1.45;;;22.80;79.60;;;;;;10363308;28;20104;-70
2021/08/31 16:19:01;;;;;;;4.45;2.00;;;22.40;80.10;;;;;;10357770;28;20492;-68
2021/08/31 16:24:03;;;;;;;7.20;1.50;;;22.20;81.70;;;;;;10351550;28;20141;-69
2021/08/31 16:29:05;;;;;;;2.65;1.50;;;22.10;83.00;;;;;;10358198;28;20084;-67
2021/08/31 16:34:08;;;;;;;3.28;1.45;;;21.80;82.80;;;;;;10369660;28;20542;-68
2021/08/31 16:39:10;;;;;;;3.63;1.33;;;21.70;82.20;;;;;;10359914;28;20056;-67
2021/08/31 16:44:12;;;;;;;1.73;1.33;;;21.80;82.60;;;;;;10366921;28;20104;-68
2021/08/31 16:49:14;;;;;;;4.10;2.00;;;21.70;83.30;;;;;;10371762;28;20111;-68
2021/08/31 16:54:19;;;;;;;4.57;1.42;;;21.70;83.40;;;;;;10373710;28;20045;-68
2021/08/31 16:59:21;;;;;;;4.25;1.40;;;21.60;83.80;;;;;;10354989;28;20058;-67
2021/08/31 17:04:24;;;;;;;3.15;1.42;;;21.40;84.10;;;;;;10372145;28;20054;-68
2021/08/31 17:09:26;;;;;;;6.63;1.52;;;21.30;85.40;;;;;;10372713;28;20523;-68
2021/08/31 17:14:28;;;;;;;1.92;1.40;;;21.00;86.20;;;;;;10366105;28;20050;-68
2021/08/31 17:19:30;;;;;;;5.90;1.85;;;20.70;87.50;;;;;;10360491;28;20050;-68
2021/08/31 17:24:31;;;;;;;6.35;2.20;;;20.50;89.10;;;;;;10367272;28;20084;-69
2021/08/31 17:29:33;;;;;;;3.17;2.20;;;20.40;90.70;;;;;;10368024;28;20103;-72
2021/08/31 17:34:35;;;;;;;3.28;1.98;;;20.20;91.70;;;;;;10371592;28;20797;-73
2021/08/31 17:39:37;;;;;;;4.00;2.45;;;20.00;91.90;;;;;;10372284;28;20065;-69
2021/08/31 17:44:39;;;;;;;4.38;2.05;;;19.80;92.60;;;;;;10365892;28;20062;-71
2021/08/31 17:49:41;;;;;;;3.63;2.10;;;19.70;92.90;;;;;;10366151;28;20134;-69
2021/08/31 17:54:44;;;;;;;5.40;2.20;;;19.60;93.30;;;;;;10364157;28;20112;-67
2021/08/31 17:59:46;;;;;;;4.57;2.22;;;19.40;93.60;;;;;;10377110;28;20077;-66
2021/08/31 18:04:48;;;;;;;3.88;2.63;;;19.30;94.50;;;;;;10368471;28;20053;-65
2021/08/31 18:09:50;;;;;;;5.45;3.13;;;19.10;95.20;;;;;;10368934;28;20053;-65
2021/08/31 18:14:51;;;;;;;9.48;3.58;;;19.00;96.00;;;;;;10368911;28;20057;-65
2021/08/31 18:19:53;;;;;;;8.88;4.22;;;18.70;97.10;;;;;;10364847;28;20112;-65
2021/08/31 18:24:56;;;;;;;9.63;4.40;;;18.50;98.70;;;;;;10365310;28;20058;-66
2021/08/31 18:29:58;;;;;;;7.07;4.75;;;18.30;99.90;;;;;;10356408;28;20107;-68
2021/08/31 18:35:02;;;;;;;19.17;6.70;;;18.10;99.90;;;;;;10367195;28;20106;-62
2021/08/31 18:40:05;;;;;;;8.10;5.25;;;17.90;99.90;;;;;;10364687;28;20053;-62
2021/08/31 18:45:07;;;;;;;8.73;5.88;;;17.70;99.90;;;;;;10363124;28;20061;-61
2021/08/31 18:50:09;;;;;;;9.73;6.43;;;17.50;99.90;;;;;;10368152;28;20053;-61
2021/08/31 18:55:11;;;;;;;11.57;5.53;;;17.30;99.90;;;;;;10368535;28;20099;-61
2021/08/31 19:00:13;;;;;;;10.30;6.10;;;17.20;99.90;;;;;;10362985;28;20058;-62
2021/08/31 19:05:15;;;;;;;11.10;7.00;;;17.00;99.90;;;;;;10352653;28;20045;-61
2021/08/31 19:10:17;;;;;;;11.38;7.28;;;16.90;99.90;;;;;;10360819;28;20070;-61
2021/08/31 19:15:19;;;;;;;11.75;6.60;;;16.70;99.90;;;;;;10365704;28;20116;-61
2021/08/31 19:20:21;;;;;;;11.48;6.15;;;16.60;99.90;;;;;;10364549;28;20503;-61
2021/08/31 19:25:23;;;;;;;12.82;7.35;;;16.50;99.90;;;;;;10362405;28;20049;-61
2021/08/31 19:30:24;;;;;;;9.70;5.80;;;16.30;99.90;;;;;;10360436;28;20041;-61
2021/08/31 19:35:26;;;;;;;12.63;5.93;;;16.20;99.90;;;;;;10364125;28;20139;-62
2021/08/31 19:40:30;;;;;;;8.13;4.40;;;16.10;99.90;;;;;;10364194;28;20049;-60
2021/08/31 19:45:34;;;;;;;6.65;4.32;;;16.00;99.90;;;;;;10365230;28;20133;-61
2021/08/31 19:50:36;;;;;;;8.90;5.03;;;15.80;99.90;;;;;;10363498;28;20054;-62
2021/08/31 19:55:38;;;;;;;12.95;4.78;;;15.80;99.90;;;;;;10357918;28;20555;-61
2021/08/31 20:00:39;;;;;;;14.38;4.50;;;15.70;99.90;;;;;;10364631;28;20045;-62
2021/08/31 20:05:42;;;;;;;11.07;4.70;;;15.60;99.90;;;;;;10365411;28;20973;-61
2021/08/31 20:10:43;;;;;;;9.70;4.75;;;15.50;99.90;;;;;;10357795;28;20082;-61
2021/08/31 20:15:45;;;;;;;9.45;4.55;;;15.40;99.90;;;;;;10363877;28;20100;-61
2021/08/31 20:20:47;;;;;;;7.97;4.70;;;15.20;99.90;;;;;;10361142;28;20104;-63
2021/08/31 20:25:49;;;;;;;8.45;4.85;;;15.10;99.90;;;;;;10362978;28;20069;-61
2021/08/31 20:30:51;;;;;;;8.30;4.93;;;15.10;99.90;;;;;;10359412;28;20139;-62
2021/08/31 20:35:53;;;;;;;10.38;5.32;;;15.00;99.90;;;;;;10356156;28;20053;-61
2021/08/31 20:40:54;;;;;;;11.00;5.80;;;14.90;99.90;;;;;;10362138;28;20357;-61
2021/08/31 20:45:56;;;;;;;8.55;5.43;;;14.80;99.90;;;;;;10362857;28;20124;-63
2021/08/31 20:50:58;;;;;;;10.80;5.35;;;14.70;99.90;;;;;;10361593;28;20052;-62
2021/08/31 20:55:59;;;;;;;11.20;4.70;;;14.70;99.90;;;;;;10357734;28;20057;-62
2021/08/31 21:01:01;;;;;;;9.45;5.20;;;14.50;99.90;;;;;;10363565;28;20550;-62
2021/08/31 21:06:03;;;;;;;10.23;5.63;;;14.40;99.90;;;;;;10356742;28;20050;-61
2021/08/31 21:11:05;;;;;;;11.15;5.07;;;14.30;99.90;;;;;;10362557;28;20064;-62
2021/08/31 21:16:07;;;;;;;8.32;4.97;;;14.30;99.90;;;;;;10361732;28;20050;-62
2021/08/31 21:21:08;;;;;;;11.10;5.22;;;14.20;99.90;;;;;;10353414;28;20371;-62
2021/08/31 21:26:10;;;;;;;6.75;4.68;;;14.20;99.90;;;;;;10352827;28;20054;-61
2021/08/31 21:31:11;;;;;;;8.10;5.05;;;14.10;99.90;;;;;;10360991;28;20042;-62
2021/08/31 21:36:13;;;;;;;11.40;4.78;;;14.00;99.90;;;;;;10363386;28;20476;-62
2021/08/31 21:41:15;;;;;;;9.80;4.97;;;14.00;99.90;;;;;;10372774;28;20049;-61
2021/08/31 21:46:17;;;;;;;8.20;5.45;;;13.90;99.90;;;;;;10365659;28;20077;-61
2021/08/31 21:51:19;;;;;;;10.68;5.57;;;13.90;99.90;;;;;;10360659;28;20046;-60
2021/08/31 21:56:20;;;;;;;13.20;5.78;;;13.90;99.90;;;;;;10362090;28;20149;-62
2021/08/31 22:01:22;;;;;;;8.43;4.90;;;13.80;99.90;;;;;;10364200;28;20468;-62
2021/08/31 22:06:24;;;;;;;13.88;4.95;;;13.80;99.90;;;;;;10363888;28;20068;-61
2021/08/31 22:11:26;;;;;;;9.00;4.65;;;13.70;99.90;;;;;;10363639;28;20061;-62
2021/08/31 22:16:27;;;;;;;7.63;5.40;;;13.70;99.90;;;;;;10360253;28;20069;-62
2021/08/31 22:21:29;;;;;;;9.45;4.70;;;13.60;99.90;;;;;;10362159;28;20049;-61
2021/08/31 22:26:31;;;;;;;15.25;6.22;;;13.60;99.90;;;;;;10356841;28;20077;-62
2021/08/31 22:37:52;;;;;;;12.57;5.00;;;13.50;99.90;;;;;;10494836;23;20093;-60
2021/08/31 22:42:54;;;;;;;10.93;4.63;;;13.40;99.90;;;;;;10287353;28;20054;-59
2021/08/31 22:47:55;;;;;;;9.20;4.85;;;13.50;99.90;;;;;;10301933;28;20070;-60
2021/08/31 22:52:57;;;;;;;8.27;4.97;;;13.40;99.90;;;;;;10294456;28;20151;-61
2021/08/31 22:57:59;;;;;;;9.55;4.80;;;13.30;99.90;;;;;;10295346;28;20054;-61
2021/08/31 23:03:00;;;;;;;8.20;4.03;;;13.30;99.90;;;;;;10292674;28;20053;-61
2021/08/31 23:08:02;;;;;;;11.07;4.88;;;13.30;99.90;;;;;;10300642;28;20129;-60
2021/08/31 23:13:04;;;;;;;7.43;3.97;;;13.20;99.90;;;;;;10293337;28;20117;-60
2021/08/31 23:18:06;;;;;;;8.02;3.22;;;13.20;99.90;;;;;;10336538;28;20100;-61
2021/08/31 23:23:07;;;;;;;8.93;3.70;;;13.20;99.90;;;;;;10327864;28;20050;-60
2021/08/31 23:28:09;;;;;;;11.00;4.60;;;13.30;99.90;;;;;;10331307;28;20108;-60
2021/08/31 23:33:11;;;;;;;6.07;3.88;;;13.30;99.90;;;;;;10335147;28;20440;-60
2021/08/31 23:38:12;;;;;;;8.27;3.97;;;13.30;99.90;;;;;;10325169;28;20084;-60
2021/08/31 23:43:14;;;;;;;7.53;3.65;;;13.30;99.90;;;;;;10333104;28;20050;-60
2021/08/31 23:48:15;;;;;;;9.48;4.45;;;13.30;99.90;;;;;;10313507;28;20455;-60
2021/08/31 23:53:17;;;;;;;6.45;3.97;;;13.30;99.90;;;;;;10326217;28;20120;-60
2021/08/31 23:58:19;;;;;;;6.35;4.28;;;13.30;99.90;;;;;;10329513;28;20576;-60
